createdAt,value
2022-11-20T00:01:15.634Z,11.70
2022-11-20T00:03:42.767Z,11.00
2022-11-20T00:06:13.693Z,10.48
2022-11-20T00:08:40.491Z,9.38
2022-11-20T00:13:42.398Z,8.70
2022-11-20T00:16:11.203Z,10.55
2022-11-20T00:18:38.107Z,9.82
2022-11-20T00:21:12.441Z,9.23
2022-11-20T00:23:39.094Z,9.57
2022-11-20T00:26:11.753Z,8.82
2022-11-20T00:28:38.553Z,7.65
2022-11-20T00:33:33.110Z,7.93
2022-11-20T00:36:04.808Z,8.32
2022-11-20T00:38:32.588Z,8.52
2022-11-20T00:41:01.617Z,8.30
2022-11-20T00:43:28.664Z,7.13
2022-11-20T00:46:07.850Z,8.32
2022-11-20T00:48:34.636Z,7.35
2022-11-20T00:53:28.501Z,6.65
2022-11-20T00:56:07.001Z,7.50
2022-11-20T00:58:37.179Z,6.28
2022-11-20T01:01:10.761Z,7.18
2022-11-20T01:03:43.719Z,6.47
2022-11-20T01:06:12.095Z,7.10
2022-11-20T01:08:39.519Z,6.88
2022-11-20T01:11:08.934Z,7.40
2022-11-20T01:13:38.274Z,7.72
2022-11-20T01:16:13.636Z,7.18
2022-11-20T01:18:43.098Z,7.00
2022-11-20T01:21:13.028Z,7.03
2022-11-20T01:23:42.018Z,6.53
2022-11-20T01:26:11.078Z,6.25
2022-11-20T01:28:39.705Z,8.48
2022-11-20T01:31:19.427Z,7.88
2022-11-20T01:33:47.845Z,6.93
2022-11-20T01:36:16.024Z,7.57
2022-11-20T01:38:43.095Z,8.23
2022-11-20T01:41:11.759Z,7.28
2022-11-20T01:43:38.371Z,7.28
2022-11-20T01:46:20.636Z,7.18
2022-11-20T01:49:00.946Z,9.20
2022-11-20T01:51:41.685Z,6.93
2022-11-20T01:54:13.440Z,6.60
2022-11-20T01:56:43.759Z,6.55
2022-11-20T01:59:13.225Z,7.60
2022-11-20T02:01:40.225Z,7.07
2022-11-20T02:04:09.068Z,7.22
2022-11-20T02:07:06.395Z,7.05
2022-11-20T02:09:33.030Z,7.22
2022-11-20T02:12:00.237Z,8.48
2022-11-20T02:14:28.219Z,6.72
2022-11-20T02:16:55.873Z,7.55
2022-11-20T02:19:22.718Z,6.82
2022-11-20T02:21:55.676Z,8.02
2022-11-20T02:24:24.199Z,7.38
2022-11-20T02:26:54.724Z,7.35
2022-11-20T02:29:39.243Z,6.78
2022-11-20T02:32:06.389Z,7.82
2022-11-20T02:34:33.066Z,6.22
2022-11-20T02:37:00.489Z,7.85
2022-11-20T02:39:29.201Z,6.45
2022-11-20T02:41:57.079Z,7.00
2022-11-20T02:44:23.874Z,7.32
2022-11-20T02:49:17.901Z,6.90
2022-11-20T02:51:44.885Z,6.60
2022-11-20T02:54:11.522Z,7.18
2022-11-20T02:56:40.139Z,8.10
2022-11-20T02:59:07.086Z,8.85
2022-11-20T03:01:33.752Z,8.55
2022-11-20T03:04:00.434Z,8.60
2022-11-20T03:06:27.103Z,7.75
2022-11-20T03:08:53.740Z,7.32
2022-11-20T03:11:21.340Z,8.13
2022-11-20T03:13:47.909Z,7.50
2022-11-20T03:16:20.138Z,8.55
2022-11-20T03:18:47.149Z,8.15
2022-11-20T03:21:15.169Z,6.70
2022-11-20T03:23:42.498Z,8.07
2022-11-20T03:26:23.450Z,7.22
2022-11-20T03:28:53.554Z,5.70
2022-11-20T03:31:24.001Z,7.43
2022-11-20T03:33:50.840Z,6.07
2022-11-20T03:38:45.315Z,5.25
2022-11-20T03:41:20.357Z,5.63
2022-11-20T03:43:55.877Z,5.97
2022-11-20T03:46:23.423Z,7.03
2022-11-20T03:48:52.004Z,6.63
2022-11-20T03:51:25.876Z,6.93
2022-11-20T03:53:54.531Z,5.15
2022-11-20T03:56:24.629Z,5.30
2022-11-20T03:58:51.373Z,4.38
2022-11-20T04:01:21.351Z,5.15
2022-11-20T04:03:48.453Z,5.63
2022-11-20T04:06:20.908Z,6.05
2022-11-20T04:08:52.413Z,6.57
2022-11-20T04:11:26.146Z,5.72
2022-11-20T04:13:55.914Z,5.22
2022-11-20T04:16:24.525Z,5.30
2022-11-20T04:18:55.845Z,5.35
2022-11-20T04:21:22.808Z,5.55
2022-11-20T04:23:50.402Z,5.47
2022-11-20T04:26:17.320Z,5.85
2022-11-20T04:28:43.969Z,6.38
2022-11-20T04:31:13.363Z,5.20
2022-11-20T04:33:40.927Z,7.05
2022-11-20T04:36:14.765Z,5.38
2022-11-20T04:38:41.815Z,7.20
2022-11-20T04:41:13.312Z,6.43
2022-11-20T04:43:39.909Z,5.47
2022-11-20T04:46:06.535Z,5.82
2022-11-20T04:48:33.099Z,5.47
2022-11-20T04:51:04.849Z,6.15
2022-11-20T04:53:31.606Z,7.20
2022-11-20T04:58:32.464Z,5.22
2022-11-20T05:01:06.917Z,5.35
2022-11-20T05:03:35.549Z,5.40
2022-11-20T05:06:06.500Z,5.75
2022-11-20T05:08:34.098Z,6.25
2022-11-20T05:11:06.039Z,6.38
2022-11-20T05:13:32.901Z,7.07
2022-11-20T05:16:08.190Z,7.22
2022-11-20T05:18:36.754Z,5.40
2022-11-20T05:21:03.602Z,6.60
2022-11-20T05:25:59.491Z,6.18
2022-11-20T05:28:27.590Z,6.15
2022-11-20T05:30:54.189Z,5.80
2022-11-20T05:33:21.117Z,5.20
2022-11-20T05:35:48.978Z,6.15
2022-11-20T05:38:15.810Z,6.03
2022-11-20T05:40:42.691Z,5.85
2022-11-20T05:43:09.319Z,5.03
2022-11-20T05:45:36.080Z,4.50
2022-11-20T05:50:29.466Z,5.28
2022-11-20T05:55:25.063Z,3.67
2022-11-20T05:57:54.460Z,3.75
2022-11-20T06:00:21.161Z,5.80
2022-11-20T06:02:47.838Z,4.82
2022-11-20T06:05:14.557Z,5.85
2022-11-20T06:07:41.252Z,5.50
2022-11-20T06:12:34.669Z,5.50
2022-11-20T06:15:01.787Z,6.22
2022-11-20T06:17:28.430Z,6.70
2022-11-20T06:19:54.985Z,6.47
2022-11-20T06:22:21.631Z,7.07
2022-11-20T06:24:48.634Z,7.43
2022-11-20T06:27:15.290Z,7.03
2022-11-20T06:29:41.914Z,7.20
2022-11-20T06:32:08.706Z,6.60
2022-11-20T06:37:01.852Z,6.50
2022-11-20T06:39:28.470Z,7.18
2022-11-20T06:41:58.749Z,9.30
2022-11-20T06:44:26.489Z,8.88
2022-11-20T06:46:53.082Z,6.32
2022-11-20T06:49:19.976Z,6.70
2022-11-20T06:51:46.864Z,6.85
2022-11-20T06:54:13.491Z,7.82
2022-11-20T06:56:40.087Z,7.93
2022-11-20T06:59:08.205Z,8.77
2022-11-20T07:01:35.842Z,7.43
2022-11-20T07:04:34.337Z,6.90
2022-11-20T07:09:31.290Z,6.75
2022-11-20T07:11:57.853Z,7.28
2022-11-20T07:14:24.468Z,7.82
2022-11-20T07:16:51.061Z,7.10
2022-11-20T07:19:17.690Z,7.18
2022-11-20T07:21:44.291Z,6.72
2022-11-20T07:24:10.853Z,7.72
2022-11-20T07:26:37.444Z,8.05
2022-11-20T07:29:04.409Z,8.80
2022-11-20T07:31:30.970Z,8.52
2022-11-20T07:33:57.612Z,7.85
2022-11-20T07:36:24.197Z,8.18
2022-11-20T07:38:50.853Z,8.45
2022-11-20T07:41:17.430Z,8.88
2022-11-20T07:43:44.174Z,7.72
2022-11-20T07:48:37.366Z,7.43
2022-11-20T07:51:04.033Z,8.15
2022-11-20T07:53:30.780Z,7.80
2022-11-20T07:58:26.802Z,8.35
2022-11-20T08:00:53.491Z,8.15
2022-11-20T08:05:51.817Z,8.35
2022-11-20T08:10:44.922Z,6.97
2022-11-20T08:13:30.209Z,6.93
2022-11-20T08:15:56.793Z,9.80
2022-11-20T08:18:31.187Z,11.23
2022-11-20T08:20:58.729Z,8.50
2022-11-20T08:25:52.341Z,7.15
2022-11-20T08:28:21.740Z,9.02
2022-11-20T08:30:50.739Z,8.38
2022-11-20T08:33:18.311Z,8.80
2022-11-20T08:35:45.174Z,7.45
2022-11-20T08:40:38.350Z,7.40
2022-11-20T08:43:05.296Z,9.35
2022-11-20T08:45:34.524Z,9.13
2022-11-20T08:48:03.459Z,8.27
2022-11-20T08:50:32.858Z,8.25
2022-11-20T08:53:05.864Z,10.40
2022-11-20T08:55:33.018Z,9.75
2022-11-20T08:58:03.698Z,9.52
2022-11-20T09:00:30.274Z,10.38
2022-11-20T09:02:56.865Z,8.63
2022-11-20T09:05:23.440Z,7.38
2022-11-20T09:07:49.993Z,8.38
2022-11-20T09:10:24.098Z,8.63
2022-11-20T09:12:52.590Z,7.05
2022-11-20T09:15:20.041Z,9.63
2022-11-20T09:17:53.337Z,9.18
2022-11-20T09:20:20.300Z,8.10
2022-11-20T09:22:47.160Z,10.13
2022-11-20T09:25:13.764Z,10.38
2022-11-20T09:27:42.314Z,9.63
2022-11-20T09:30:09.343Z,8.88
2022-11-20T09:32:36.643Z,10.55
2022-11-20T09:35:03.403Z,10.15
2022-11-20T09:39:56.590Z,11.20
2022-11-20T09:42:45.650Z,9.13
2022-11-20T09:45:17.465Z,9.65
2022-11-20T09:47:49.693Z,10.75
2022-11-20T09:50:37.431Z,10.50
2022-11-20T09:53:24.998Z,9.15
2022-11-20T09:55:53.049Z,10.65
2022-11-20T09:58:46.514Z,10.45
2022-11-20T10:01:17.561Z,9.88
2022-11-20T10:04:02.271Z,10.57
2022-11-20T10:06:34.608Z,10.38
2022-11-20T10:09:14.503Z,10.82
2022-11-20T10:12:22.729Z,10.82
2022-11-20T10:15:23.422Z,9.95
2022-11-20T10:17:56.222Z,10.15
2022-11-20T10:20:33.700Z,10.45
2022-11-20T10:23:03.056Z,10.63
2022-11-20T10:25:46.818Z,10.60
2022-11-20T10:28:25.732Z,11.27
2022-11-20T10:31:01.899Z,10.73
2022-11-20T10:33:50.063Z,10.48
2022-11-20T10:36:24.885Z,10.27
2022-11-20T10:39:01.770Z,11.20
2022-11-20T10:41:37.243Z,9.95
2022-11-20T10:44:40.821Z,10.85
2022-11-20T10:47:17.143Z,10.25
2022-11-20T10:49:52.167Z,11.48
2022-11-20T10:52:39.838Z,9.80
2022-11-20T10:55:27.777Z,11.63
2022-11-20T10:58:22.181Z,12.05
2022-11-20T11:00:48.965Z,10.77
2022-11-20T11:03:28.333Z,13.88
2022-11-20T11:08:33.624Z,10.75
2022-11-20T11:11:03.576Z,12.35
2022-11-20T11:13:31.626Z,11.10
2022-11-20T11:15:58.673Z,13.88
2022-11-20T11:18:41.843Z,11.52
2022-11-20T11:21:10.685Z,11.60
2022-11-20T11:23:43.183Z,14.30
2022-11-20T11:26:24.668Z,12.85
2022-11-20T11:29:00.168Z,12.43
2022-11-20T11:31:32.673Z,12.77
2022-11-20T11:34:13.772Z,12.55
2022-11-20T11:36:41.028Z,11.13
2022-11-20T11:39:14.466Z,11.27
2022-11-20T11:41:41.949Z,12.82
2022-11-20T11:44:49.040Z,11.18
2022-11-20T11:47:23.894Z,11.82
2022-11-20T11:50:01.080Z,12.35
2022-11-20T11:52:28.847Z,11.55
2022-11-20T11:55:00.709Z,12.27
2022-11-20T11:57:52.752Z,11.48
2022-11-20T12:00:21.945Z,10.10
2022-11-20T12:02:51.454Z,10.98
2022-11-20T12:05:30.275Z,12.55
2022-11-20T12:08:02.648Z,12.38
2022-11-20T12:10:42.053Z,11.43
2022-11-20T12:13:32.716Z,11.10
2022-11-20T12:15:59.447Z,11.85
2022-11-20T12:18:26.433Z,11.13
2022-11-20T12:21:24.413Z,12.27
2022-11-20T12:24:28.696Z,10.52
2022-11-20T12:27:33.113Z,10.88
2022-11-20T12:30:19.470Z,11.02
2022-11-20T12:33:11.024Z,10.82
2022-11-20T12:36:14.512Z,11.45
2022-11-20T12:38:53.239Z,11.93
2022-11-20T12:41:53.347Z,11.23
2022-11-20T12:45:02.825Z,12.05
2022-11-20T12:48:13.142Z,10.40
2022-11-20T12:51:13.530Z,11.90
2022-11-20T12:53:38.745Z,11.85
2022-11-20T12:56:39.548Z,11.25
2022-11-20T12:59:46.784Z,11.95
2022-11-20T13:02:34.742Z,10.93
2022-11-20T13:05:12.254Z,11.35
2022-11-20T13:07:40.836Z,11.43
2022-11-20T13:10:41.550Z,12.50
2022-11-20T13:13:33.921Z,12.15
2022-11-20T13:16:14.739Z,13.48
2022-11-20T13:18:43.507Z,11.35
2022-11-20T13:21:22.028Z,10.40
2022-11-20T13:23:48.768Z,12.45
2022-11-20T13:26:20.004Z,11.15
2022-11-20T13:28:48.779Z,11.48
2022-11-20T13:31:32.368Z,10.50
2022-11-20T13:34:00.427Z,12.05
2022-11-20T13:36:30.096Z,11.90
2022-11-20T13:38:57.503Z,11.52
2022-11-20T13:41:38.623Z,12.50
2022-11-20T13:44:24.245Z,11.80
2022-11-20T13:46:51.308Z,12.23
2022-11-20T13:49:43.817Z,14.73
2022-11-20T13:52:43.365Z,11.98
2022-11-20T13:55:37.574Z,11.13
2022-11-20T13:58:48.806Z,12.77
2022-11-20T14:01:20.523Z,11.75
2022-11-20T14:04:05.751Z,12.55
2022-11-20T14:06:40.096Z,13.25
2022-11-20T14:09:11.556Z,13.18
2022-11-20T14:11:47.821Z,14.65
2022-11-20T14:14:18.115Z,12.35
2022-11-20T14:16:48.225Z,13.35
2022-11-20T14:19:20.660Z,14.90
2022-11-20T14:21:53.180Z,14.95
2022-11-20T14:24:22.178Z,14.07
2022-11-20T14:26:50.475Z,12.70
2022-11-20T14:29:19.383Z,15.18
2022-11-20T14:31:52.700Z,14.50
2022-11-20T14:34:24.390Z,16.15
2022-11-20T14:37:00.484Z,17.75
2022-11-20T14:39:34.806Z,16.45
2022-11-20T14:42:01.661Z,16.55
2022-11-20T14:44:34.211Z,17.15
2022-11-20T14:47:03.470Z,15.55
2022-11-20T14:49:32.490Z,15.98
2022-11-20T14:52:14.372Z,13.55
2022-11-20T14:54:49.083Z,13.55
2022-11-20T14:57:23.675Z,17.38
2022-11-20T14:59:50.301Z,17.67
2022-11-20T15:02:17.473Z,15.93
2022-11-20T15:04:51.689Z,15.45
2022-11-20T15:07:29.832Z,17.17
2022-11-20T15:10:12.804Z,15.52
2022-11-20T15:12:54.378Z,13.00
2022-11-20T15:15:31.319Z,12.52
2022-11-20T15:17:58.850Z,12.20
2022-11-20T15:20:29.376Z,11.00
2022-11-20T15:22:56.017Z,9.80
2022-11-20T15:27:56.756Z,8.75
2022-11-20T15:30:24.128Z,10.30
2022-11-20T15:32:50.823Z,10.40
2022-11-20T15:35:17.490Z,10.77
2022-11-20T15:37:44.142Z,9.57
2022-11-20T15:40:11.349Z,10.07
2022-11-20T15:42:38.027Z,9.30
2022-11-20T15:45:05.150Z,10.13
2022-11-20T15:47:35.229Z,11.15
2022-11-20T15:50:02.023Z,10.25
2022-11-20T15:52:33.100Z,11.77
2022-11-20T15:55:11.508Z,10.00
2022-11-20T15:57:38.104Z,9.38
2022-11-20T16:02:31.609Z,10.05
2022-11-20T16:04:58.353Z,9.43
2022-11-20T16:07:25.064Z,12.35
2022-11-20T16:09:51.656Z,9.38
2022-11-20T16:15:23.942Z,9.35
2022-11-20T16:17:50.542Z,9.55
2022-11-20T16:22:43.646Z,8.40
2022-11-20T16:27:36.705Z,8.43
2022-11-20T16:30:03.508Z,9.75
2022-11-20T16:32:30.120Z,10.50
2022-11-20T16:37:23.401Z,8.85
2022-11-20T16:39:49.977Z,11.52
2022-11-20T16:44:46.547Z,9.13
2022-11-20T16:47:13.129Z,8.70
2022-11-20T16:52:06.352Z,10.07
2022-11-20T16:56:59.588Z,9.38
2022-11-20T17:01:52.875Z,9.18
2022-11-20T17:04:22.158Z,10.15
2022-11-20T17:06:48.857Z,11.20
2022-11-20T17:11:42.412Z,9.23
2022-11-20T17:14:11.179Z,11.52
2022-11-20T17:16:37.971Z,10.60
2022-11-20T17:19:05.455Z,10.88
2022-11-20T17:21:35.813Z,10.48
2022-11-20T17:24:04.536Z,10.88
2022-11-20T17:26:31.424Z,11.48
2022-11-20T17:28:59.029Z,12.05
2022-11-20T17:31:26.849Z,12.98
2022-11-20T17:33:53.772Z,11.63
2022-11-20T17:36:20.880Z,10.32
2022-11-20T17:38:48.117Z,12.55
2022-11-20T17:41:17.318Z,12.18
2022-11-20T17:43:44.653Z,12.90
2022-11-20T17:46:14.540Z,12.93
2022-11-20T17:48:44.013Z,13.38
2022-11-20T17:51:13.322Z,12.48
2022-11-20T17:53:41.906Z,12.60
2022-11-20T17:56:26.941Z,13.20
2022-11-20T17:58:53.819Z,13.45
2022-11-20T18:01:20.982Z,13.40
2022-11-20T18:03:47.985Z,13.65
2022-11-20T18:06:23.706Z,12.63
2022-11-20T18:08:50.827Z,13.57
2022-11-20T18:11:31.935Z,12.88
2022-11-20T18:14:19.807Z,12.40
2022-11-20T18:16:49.145Z,12.90
2022-11-20T18:19:19.881Z,14.25
2022-11-20T18:21:46.778Z,51.60
2022-11-20T18:24:13.845Z,20.83
2022-11-20T18:26:44.259Z,13.70
2022-11-20T18:29:12.136Z,14.48
2022-11-20T18:31:39.554Z,13.07
2022-11-20T18:34:07.666Z,12.88
2022-11-20T18:36:34.762Z,14.95
2022-11-20T18:39:05.148Z,14.23
2022-11-20T18:41:50.523Z,11.63
2022-11-20T18:44:40.944Z,13.10
2022-11-20T18:47:14.208Z,13.60
2022-11-20T18:49:43.191Z,14.65
2022-11-20T18:52:09.900Z,11.70
2022-11-20T18:54:37.254Z,13.07
2022-11-20T18:57:05.055Z,14.50
2022-11-20T18:59:32.262Z,11.98
2022-11-20T19:01:59.358Z,14.40
2022-11-20T19:04:26.706Z,12.73
2022-11-20T19:06:56.231Z,13.05
2022-11-20T19:09:24.314Z,14.85
2022-11-20T19:11:51.623Z,12.35
2022-11-20T19:14:18.428Z,13.55
2022-11-20T19:16:45.165Z,14.52
2022-11-20T19:19:12.194Z,13.23
2022-11-20T19:21:38.942Z,11.57
2022-11-20T19:24:05.832Z,11.65
2022-11-20T19:26:35.391Z,12.73
2022-11-20T19:29:02.325Z,13.38
2022-11-20T19:31:29.027Z,13.15
2022-11-20T19:34:03.805Z,15.27
2022-11-20T19:36:39.069Z,11.85
2022-11-20T19:39:09.661Z,11.48
2022-11-20T19:41:38.516Z,13.00
2022-11-20T19:44:07.951Z,12.10
2022-11-20T19:46:36.496Z,12.55
2022-11-20T19:49:04.307Z,12.55
2022-11-20T19:51:34.214Z,12.82
2022-11-20T19:54:02.208Z,12.13
2022-11-20T19:56:30.840Z,12.32
2022-11-20T19:58:57.910Z,11.63
2022-11-20T20:01:27.168Z,11.95
2022-11-20T20:03:55.092Z,11.30
2022-11-20T20:06:24.115Z,11.55
2022-11-20T20:08:56.072Z,11.57
2022-11-20T20:11:25.041Z,11.35
2022-11-20T20:13:51.802Z,12.93
2022-11-20T20:16:21.920Z,13.25
2022-11-20T20:18:48.832Z,13.40
2022-11-20T20:21:18.483Z,12.48
2022-11-20T20:23:50.008Z,11.52
2022-11-20T20:26:16.601Z,12.68
2022-11-20T20:28:43.200Z,10.95
2022-11-20T20:31:12.424Z,11.30
2022-11-20T20:33:40.212Z,11.43
2022-11-20T20:36:08.683Z,9.82
2022-11-20T20:38:35.660Z,9.70
2022-11-20T20:41:02.335Z,9.48
2022-11-20T20:43:29.480Z,10.35
2022-11-20T20:45:56.291Z,8.55
2022-11-20T20:48:24.947Z,9.48
2022-11-20T20:51:01.053Z,9.00
2022-11-20T20:53:29.949Z,10.55
2022-11-20T20:55:57.334Z,9.88
2022-11-20T20:58:24.848Z,10.80
2022-11-20T21:00:51.770Z,10.68
2022-11-20T21:03:18.931Z,9.50
2022-11-20T21:05:46.171Z,10.13
2022-11-20T21:08:22.050Z,9.68
2022-11-20T21:10:49.981Z,11.48
2022-11-20T21:13:17.758Z,10.00
2022-11-20T21:15:47.958Z,10.13
2022-11-20T21:18:16.708Z,9.35
2022-11-20T21:21:03.162Z,8.85
2022-11-20T21:23:29.914Z,8.13
2022-11-20T21:25:56.736Z,9.32
2022-11-20T21:28:23.436Z,8.38
2022-11-20T21:30:50.077Z,10.85
2022-11-20T21:33:16.777Z,11.98
2022-11-20T21:35:43.420Z,11.30
2022-11-20T21:38:10.030Z,12.32
2022-11-20T21:43:03.223Z,12.35
2022-11-20T21:45:29.885Z,12.18
2022-11-20T21:47:56.453Z,11.50
2022-11-20T21:52:49.624Z,12.88
2022-11-20T21:55:16.246Z,10.85
2022-11-20T21:57:42.837Z,9.52
2022-11-20T22:00:10.477Z,10.32
2022-11-20T22:02:40.179Z,10.45
2022-11-20T22:05:07.880Z,10.90
2022-11-20T22:07:35.127Z,10.00
2022-11-20T22:10:01.907Z,11.38
2022-11-20T22:12:28.561Z,10.27
2022-11-20T22:14:55.155Z,9.73
2022-11-20T22:17:41.767Z,10.48
2022-11-20T22:20:09.379Z,10.13
2022-11-20T22:22:35.956Z,10.00
2022-11-20T22:27:29.133Z,8.70
2022-11-20T22:29:55.848Z,9.75
2022-11-20T22:32:22.483Z,9.82
2022-11-20T22:34:49.165Z,9.15
2022-11-20T22:37:15.967Z,10.60
2022-11-20T22:39:42.582Z,11.05
2022-11-20T22:42:09.231Z,10.32
2022-11-20T22:44:35.860Z,10.40
2022-11-20T22:47:03.665Z,10.48
2022-11-20T22:49:33.069Z,10.02
2022-11-20T22:51:59.684Z,11.65
2022-11-20T22:54:26.576Z,13.32
2022-11-20T22:56:53.326Z,12.05
2022-11-20T22:59:19.919Z,12.02
2022-11-20T23:01:46.610Z,12.57
2022-11-20T23:04:13.221Z,12.63
2022-11-20T23:06:39.877Z,13.00
2022-11-20T23:09:07.934Z,11.98
2022-11-20T23:11:35.550Z,12.10
2022-11-20T23:14:05.345Z,10.90
2022-11-20T23:16:33.549Z,10.80
2022-11-20T23:19:08.046Z,9.35
2022-11-20T23:21:36.073Z,8.70
2022-11-20T23:24:03.429Z,8.70
2022-11-20T23:26:32.597Z,8.65
2022-11-20T23:29:00.152Z,7.53
2022-11-20T23:31:29.225Z,7.95
2022-11-20T23:33:56.510Z,7.80
2022-11-20T23:36:23.162Z,8.93
2022-11-20T23:38:49.812Z,8.05
2022-11-20T23:41:17.099Z,8.40
2022-11-20T23:43:43.732Z,9.00
2022-11-20T23:46:15.103Z,7.15
2022-11-20T23:48:43.117Z,7.40
2022-11-20T23:51:09.925Z,7.68
2022-11-20T23:53:36.602Z,8.02
2022-11-20T23:56:05.246Z,7.97
2022-11-20T23:58:41.379Z,7.60
